createdAt,value
2018-09-27T00:00:33.093Z,2.20
2018-09-27T00:03:00.353Z,2.13
2018-09-27T00:05:27.815Z,1.73
2018-09-27T00:07:55.085Z,2.20
2018-09-27T00:10:22.563Z,2.33
2018-09-27T00:12:49.969Z,2.20
2018-09-27T00:15:17.431Z,1.93
2018-09-27T00:17:44.824Z,1.90
2018-09-27T00:20:12.123Z,2.23
2018-09-27T00:22:39.430Z,2.33
2018-09-27T00:25:06.935Z,2.20
2018-09-27T00:27:34.374Z,2.20
2018-09-27T00:30:01.626Z,2.10
2018-09-27T00:32:28.911Z,2.47
2018-09-27T00:34:56.293Z,2.13
2018-09-27T00:37:23.834Z,2.30
2018-09-27T00:39:51.343Z,2.00
2018-09-27T00:42:18.862Z,2.07
2018-09-27T00:44:46.071Z,2.40
2018-09-27T00:47:13.467Z,2.30
2018-09-27T00:49:40.820Z,1.70
2018-09-27T00:52:08.053Z,2.40
2018-09-27T00:54:35.468Z,2.30
2018-09-27T00:57:03.034Z,2.10
2018-09-27T00:59:30.497Z,2.30
2018-09-27T01:01:57.738Z,2.27
2018-09-27T01:04:25.165Z,2.90
2018-09-27T01:06:52.617Z,2.20
2018-09-27T01:09:20.005Z,2.10
2018-09-27T01:11:47.508Z,2.40
2018-09-27T01:14:14.862Z,2.37
2018-09-27T01:16:42.229Z,2.60
2018-09-27T01:19:09.569Z,1.90
2018-09-27T01:21:36.882Z,2.20
2018-09-27T01:24:04.343Z,1.67
2018-09-27T01:26:31.737Z,2.13
2018-09-27T01:28:58.981Z,1.80
2018-09-27T01:31:26.288Z,2.03
2018-09-27T01:33:53.501Z,2.00
2018-09-27T01:36:20.705Z,1.87
2018-09-27T01:38:48.363Z,1.90
2018-09-27T01:41:15.781Z,2.13
2018-09-27T01:43:43.492Z,2.40
2018-09-27T01:46:12.420Z,2.13
2018-09-27T01:48:41.620Z,2.07
2018-09-27T01:51:11.060Z,2.00
2018-09-27T01:53:39.433Z,2.00
2018-09-27T01:56:07.557Z,2.03
2018-09-27T01:58:35.185Z,1.90
2018-09-27T02:01:02.658Z,1.80
2018-09-27T02:03:30.093Z,1.77
2018-09-27T02:05:57.649Z,1.90
2018-09-27T02:08:25.501Z,1.90
2018-09-27T02:10:52.802Z,1.97
2018-09-27T02:13:20.218Z,1.93
2018-09-27T02:15:48.255Z,1.97
2018-09-27T02:18:15.907Z,2.60
2018-09-27T02:20:45.483Z,1.80
2018-09-27T02:23:14.580Z,2.57
2018-09-27T02:25:42.665Z,1.90
2018-09-27T02:28:10.506Z,2.00
2018-09-27T02:30:37.942Z,2.10
2018-09-27T02:33:05.414Z,2.13
2018-09-27T02:35:32.922Z,1.83
2018-09-27T02:38:00.298Z,1.97
2018-09-27T02:40:27.608Z,2.30
2018-09-27T02:42:54.976Z,2.27
2018-09-27T02:45:22.485Z,2.33
2018-09-27T02:47:49.943Z,1.73
2018-09-27T02:50:17.262Z,2.10
2018-09-27T02:52:44.525Z,1.80
2018-09-27T02:55:11.846Z,1.90
2018-09-27T02:57:39.185Z,1.73
2018-09-27T03:00:06.471Z,1.80
2018-09-27T03:02:33.823Z,2.00
2018-09-27T03:05:01.284Z,2.03
2018-09-27T03:07:28.815Z,1.80
2018-09-27T03:09:56.136Z,1.83
2018-09-27T03:12:23.480Z,1.70
2018-09-27T03:14:50.741Z,2.00
2018-09-27T03:17:18.009Z,2.43
2018-09-27T03:19:45.656Z,2.00
2018-09-27T03:22:13.004Z,2.00
2018-09-27T03:24:40.270Z,1.90
2018-09-27T03:27:07.506Z,2.00
2018-09-27T03:29:34.841Z,2.30
2018-09-27T03:32:02.194Z,2.30
2018-09-27T03:34:29.548Z,2.10
2018-09-27T03:36:56.762Z,2.17
2018-09-27T03:39:24.140Z,2.00
2018-09-27T03:41:51.409Z,2.70
2018-09-27T03:44:18.878Z,2.13
2018-09-27T03:46:46.130Z,2.40
2018-09-27T03:49:13.819Z,2.30
2018-09-27T03:51:41.038Z,2.07
2018-09-27T03:54:08.303Z,2.30
2018-09-27T03:56:35.540Z,2.20
2018-09-27T03:59:03.166Z,2.03
2018-09-27T04:01:30.498Z,2.33
2018-09-27T04:03:57.720Z,2.10
2018-09-27T04:06:25.157Z,2.30
2018-09-27T04:08:52.336Z,2.70
2018-09-27T04:11:19.734Z,2.60
2018-09-27T04:13:47.662Z,2.47
2018-09-27T04:16:15.163Z,2.50
2018-09-27T04:18:42.516Z,2.00
2018-09-27T04:21:09.682Z,2.40
2018-09-27T04:23:36.917Z,2.43
2018-09-27T04:26:04.559Z,2.47
2018-09-27T04:28:31.707Z,2.50
2018-09-27T04:30:58.941Z,3.50
2018-09-27T04:33:26.312Z,1.87
2018-09-27T04:35:53.571Z,2.30
2018-09-27T04:38:20.783Z,2.70
2018-09-27T04:40:48.244Z,2.70
2018-09-27T04:43:15.514Z,2.87
2018-09-27T04:45:42.904Z,2.60
2018-09-27T04:48:10.684Z,1.83
2018-09-27T04:50:38.055Z,2.30
2018-09-27T04:53:05.394Z,1.90
2018-09-27T04:55:32.578Z,2.97
2018-09-27T04:57:59.813Z,2.10
2018-09-27T05:00:26.966Z,2.43
2018-09-27T05:02:54.158Z,1.93
2018-09-27T05:05:21.390Z,2.40
2018-09-27T05:07:48.614Z,2.80
2018-09-27T05:10:16.023Z,2.37
2018-09-27T05:12:43.243Z,3.00
2018-09-27T05:15:11.207Z,2.93
2018-09-27T05:17:38.390Z,2.13
2018-09-27T05:20:08.707Z,4.30
2018-09-27T05:22:36.338Z,3.00
2018-09-27T05:25:04.220Z,3.77
2018-09-27T05:27:31.691Z,3.07
2018-09-27T05:29:58.977Z,3.50
2018-09-27T05:32:26.521Z,3.03
2018-09-27T05:34:53.817Z,3.40
2018-09-27T05:37:21.117Z,2.77
2018-09-27T05:39:48.581Z,3.00
2018-09-27T05:42:15.865Z,2.90
2018-09-27T05:44:43.190Z,2.33
2018-09-27T05:47:10.437Z,2.50
2018-09-27T05:49:37.721Z,2.87
2018-09-27T05:52:04.930Z,2.27
2018-09-27T05:54:32.185Z,2.10
2018-09-27T05:56:59.389Z,2.40
2018-09-27T05:59:26.710Z,2.50
2018-09-27T06:01:53.915Z,2.40
2018-09-27T06:04:21.172Z,2.70
2018-09-27T06:06:48.529Z,3.33
2018-09-27T06:09:15.857Z,2.30
2018-09-27T06:11:42.983Z,3.60
2018-09-27T06:14:10.202Z,2.40
2018-09-27T06:16:38.319Z,2.10
2018-09-27T06:19:05.835Z,2.57
2018-09-27T06:21:33.101Z,3.67
2018-09-27T06:24:00.474Z,2.87
2018-09-27T06:26:28.190Z,3.17
2018-09-27T06:28:55.484Z,2.90
2018-09-27T06:31:22.648Z,3.20
2018-09-27T06:33:49.821Z,3.53
2018-09-27T06:36:17.142Z,4.30
2018-09-27T06:38:44.740Z,3.87
2018-09-27T06:41:11.882Z,4.20
2018-09-27T06:43:39.145Z,3.60
2018-09-27T06:46:09.128Z,3.37
2018-09-27T06:48:37.510Z,3.37
2018-09-27T06:51:04.847Z,3.03
2018-09-27T06:53:32.067Z,3.20
2018-09-27T06:55:59.603Z,3.60
2018-09-27T06:58:27.874Z,3.87
2018-09-27T07:00:55.574Z,3.20
2018-09-27T07:03:22.755Z,2.90
2018-09-27T07:05:49.898Z,3.00
2018-09-27T07:08:17.295Z,7.03
2018-09-27T07:10:44.517Z,3.70
2018-09-27T07:13:11.743Z,2.77
2018-09-27T07:15:38.961Z,4.00
2018-09-27T07:18:06.112Z,2.80
2018-09-27T07:20:33.350Z,2.70
2018-09-27T07:23:00.555Z,2.60
2018-09-27T07:25:27.851Z,2.73
2018-09-27T07:27:55.263Z,2.60
2018-09-27T07:30:22.437Z,3.27
2018-09-27T07:32:49.591Z,2.63
2018-09-27T07:35:16.761Z,2.53
2018-09-27T07:37:43.960Z,3.17
2018-09-27T07:40:11.114Z,3.03
2018-09-27T07:42:38.902Z,2.63
2018-09-27T07:45:06.363Z,2.70
2018-09-27T07:47:33.951Z,2.70
2018-09-27T07:50:01.423Z,3.50
2018-09-27T07:52:28.646Z,3.20
2018-09-27T07:54:55.909Z,4.20
2018-09-27T07:57:23.176Z,3.00
2018-09-27T07:59:51.703Z,3.80
2018-09-27T08:02:19.043Z,4.10
2018-09-27T08:04:46.355Z,3.73
2018-09-27T08:07:13.550Z,3.83
2018-09-27T08:09:41.086Z,4.70
2018-09-27T08:12:08.586Z,3.80
2018-09-27T08:14:35.951Z,4.40
2018-09-27T08:17:03.119Z,4.40
2018-09-27T08:19:30.296Z,5.10
2018-09-27T08:21:57.643Z,4.50
2018-09-27T08:24:24.997Z,4.37
2018-09-27T08:26:52.333Z,5.23
2018-09-27T08:29:19.707Z,5.20
2018-09-27T08:31:47.001Z,4.70
2018-09-27T08:34:14.251Z,4.37
2018-09-27T08:36:41.393Z,4.23
2018-09-27T08:39:10.406Z,4.53
2018-09-27T08:41:38.101Z,5.70
2018-09-27T08:44:05.609Z,4.03
2018-09-27T08:46:32.881Z,4.57
2018-09-27T08:49:00.986Z,4.07
2018-09-27T08:51:28.999Z,3.20
2018-09-27T08:53:56.116Z,3.70
2018-09-27T08:56:23.329Z,3.67
2018-09-27T08:58:50.632Z,3.70
2018-09-27T09:01:17.885Z,4.10
2018-09-27T09:03:45.332Z,4.10
2018-09-27T09:06:12.622Z,3.97
2018-09-27T09:08:39.851Z,4.47
2018-09-27T09:11:07.097Z,4.00
2018-09-27T09:13:34.501Z,3.20
2018-09-27T09:16:01.862Z,3.67
2018-09-27T09:18:29.110Z,3.40
2018-09-27T09:20:56.790Z,3.30
2018-09-27T09:23:23.918Z,3.60
2018-09-27T09:25:51.196Z,3.80
2018-09-27T09:28:18.522Z,3.57
2018-09-27T09:30:45.843Z,4.00
2018-09-27T09:33:13.154Z,4.23
2018-09-27T09:35:40.511Z,4.17
2018-09-27T09:38:07.796Z,4.57
2018-09-27T09:40:35.092Z,4.30
2018-09-27T09:43:02.245Z,5.23
2018-09-27T09:45:29.485Z,4.00
2018-09-27T09:47:57.321Z,3.57
2018-09-27T09:50:24.676Z,3.97
2018-09-27T09:52:51.948Z,3.80
2018-09-27T09:55:19.186Z,3.53
2018-09-27T09:57:46.413Z,3.60
2018-09-27T10:00:13.831Z,3.73
2018-09-27T10:02:41.061Z,3.50
2018-09-27T10:05:08.475Z,5.00
2018-09-27T10:07:35.950Z,4.53
2018-09-27T10:10:03.265Z,3.80
2018-09-27T10:12:30.538Z,3.70
2018-09-27T10:14:57.947Z,3.30
2018-09-27T10:17:31.925Z,3.80
2018-09-27T10:19:59.297Z,3.20
2018-09-27T10:22:26.530Z,3.00
2018-09-27T10:24:54.140Z,3.07
2018-09-27T10:27:21.820Z,3.03
2018-09-27T10:29:49.037Z,3.33
2018-09-27T10:32:16.258Z,3.40
2018-09-27T10:34:44.000Z,3.57
2018-09-27T10:37:11.150Z,2.90
2018-09-27T10:39:38.436Z,3.20
2018-09-27T10:42:05.675Z,2.83
2018-09-27T10:44:32.950Z,2.43
2018-09-27T10:47:00.390Z,3.00
2018-09-27T10:49:27.873Z,2.73
2018-09-27T10:51:57.101Z,2.80
2018-09-27T10:54:24.476Z,2.67
2018-09-27T10:56:51.854Z,2.40
2018-09-27T10:59:19.304Z,2.80
2018-09-27T11:01:46.538Z,2.70
2018-09-27T11:04:13.945Z,2.30
2018-09-27T11:06:41.361Z,2.83
2018-09-27T11:09:09.372Z,2.20
2018-09-27T11:11:36.981Z,3.20
2018-09-27T11:14:04.984Z,2.77
2018-09-27T11:16:32.694Z,3.27
2018-09-27T11:18:59.886Z,2.70
2018-09-27T11:21:27.122Z,2.60
2018-09-27T11:23:54.379Z,3.37
2018-09-27T11:26:21.732Z,3.33
2018-09-27T11:28:54.521Z,2.50
2018-09-27T11:31:27.807Z,3.00
2018-09-27T11:33:55.059Z,2.90
2018-09-27T11:36:22.459Z,2.50
2018-09-27T11:38:49.977Z,2.97
2018-09-27T11:41:17.858Z,6.40
2018-09-27T11:43:45.282Z,3.80
2018-09-27T11:46:12.773Z,2.70
2018-09-27T11:48:40.039Z,3.20
2018-09-27T11:51:08.397Z,3.03
2018-09-27T11:53:36.838Z,3.10
2018-09-27T11:56:04.248Z,3.10
2018-09-27T11:58:31.605Z,2.63
2018-09-27T12:00:59.069Z,2.60
2018-09-27T12:03:26.374Z,2.70
2018-09-27T12:05:53.664Z,2.93
2018-09-27T12:08:20.980Z,2.73
2018-09-27T12:10:49.445Z,2.47
2018-09-27T12:13:16.827Z,2.33
2018-09-27T12:15:44.317Z,2.40
2018-09-27T12:18:11.763Z,2.50
2018-09-27T12:20:39.071Z,2.80
2018-09-27T12:23:06.444Z,2.60
2018-09-27T12:25:33.775Z,2.80
2018-09-27T12:28:01.061Z,2.90
2018-09-27T12:30:28.367Z,2.60
2018-09-27T12:32:56.610Z,2.80
2018-09-27T12:35:23.825Z,2.23
2018-09-27T12:37:51.211Z,1.97
2018-09-27T12:40:19.177Z,2.47
2018-09-27T12:42:46.600Z,2.40
2018-09-27T12:45:13.842Z,2.03
2018-09-27T12:47:41.027Z,1.83
2018-09-27T12:50:08.251Z,2.07
2018-09-27T12:52:35.579Z,2.83
2018-09-27T12:55:03.101Z,2.30
2018-09-27T12:57:30.462Z,1.90
2018-09-27T12:59:57.783Z,2.67
2018-09-27T13:02:25.097Z,2.00
2018-09-27T13:04:52.469Z,2.50
2018-09-27T13:07:20.603Z,1.80
2018-09-27T13:09:47.882Z,2.00
2018-09-27T13:12:15.664Z,2.17
2018-09-27T13:14:42.996Z,1.80
2018-09-27T13:17:10.155Z,3.00
2018-09-27T13:19:37.600Z,2.30
2018-09-27T13:22:04.716Z,2.30
2018-09-27T13:24:31.959Z,3.30
2018-09-27T13:26:59.385Z,2.03
2018-09-27T13:29:27.501Z,2.47
2018-09-27T13:31:54.791Z,2.77
2018-09-27T13:34:22.043Z,2.23
2018-09-27T13:36:49.348Z,2.20
2018-09-27T13:39:16.687Z,2.20
2018-09-27T13:41:43.897Z,1.90
2018-09-27T13:44:11.210Z,2.33
2018-09-27T13:46:38.458Z,2.83
2018-09-27T13:49:05.871Z,2.70
2018-09-27T13:51:33.171Z,2.50
2018-09-27T13:54:00.804Z,2.20
2018-09-27T13:56:28.363Z,1.90
2018-09-27T13:58:56.274Z,2.10
2018-09-27T14:01:23.727Z,2.00
2018-09-27T14:03:50.969Z,1.80
2018-09-27T14:06:18.306Z,1.97
2018-09-27T14:08:45.500Z,2.30
2018-09-27T14:11:12.739Z,2.40
2018-09-27T14:13:40.050Z,2.03
2018-09-27T14:16:08.151Z,2.43
2018-09-27T14:18:35.408Z,2.60
2018-09-27T14:21:02.678Z,2.23
2018-09-27T14:23:30.905Z,3.30
2018-09-27T14:25:58.539Z,2.00
2018-09-27T14:28:25.825Z,1.70
2018-09-27T14:30:53.151Z,2.10
2018-09-27T14:33:20.427Z,2.23
2018-09-27T14:35:48.367Z,1.90
2018-09-27T14:38:15.752Z,2.20
2018-09-27T14:40:42.971Z,2.17
2018-09-27T14:43:10.258Z,2.67
2018-09-27T14:45:37.507Z,2.20
2018-09-27T14:48:04.848Z,2.20
2018-09-27T14:50:32.110Z,2.10
2018-09-27T14:52:59.854Z,2.80
2018-09-27T14:55:27.129Z,2.37
2018-09-27T14:57:54.511Z,2.27
2018-09-27T15:00:21.969Z,2.53
2018-09-27T15:02:49.929Z,2.63
2018-09-27T15:05:17.312Z,4.87
2018-09-27T15:07:45.532Z,2.47
2018-09-27T15:10:13.183Z,2.53
2018-09-27T15:12:40.871Z,2.67
2018-09-27T15:15:08.338Z,2.30
2018-09-27T15:17:35.942Z,2.40
2018-09-27T15:20:03.349Z,2.20
2018-09-27T15:22:30.957Z,2.20
2018-09-27T15:24:58.251Z,2.13
2018-09-27T15:27:25.442Z,2.30
2018-09-27T15:29:52.740Z,2.60
2018-09-27T15:32:19.991Z,3.00
2018-09-27T15:34:49.356Z,2.13
2018-09-27T15:37:19.608Z,2.50
2018-09-27T15:39:57.538Z,2.30
2018-09-27T15:44:19.967Z,2.10
2018-09-27T15:46:51.051Z,2.60
2018-09-27T15:49:18.911Z,2.53
2018-09-27T15:51:59.131Z,2.90
2018-09-27T15:54:28.324Z,2.53
2018-09-27T15:56:57.362Z,3.10
2018-09-27T15:59:29.130Z,2.50
2018-09-27T16:02:04.163Z,2.40
2018-09-27T16:04:32.664Z,2.47
2018-09-27T16:07:00.474Z,2.70
2018-09-27T16:09:43.294Z,3.10
2018-09-27T16:12:11.107Z,2.83
2018-09-27T16:14:39.327Z,4.00
2018-09-27T16:17:06.663Z,3.40
2018-09-27T16:19:34.312Z,3.00
2018-09-27T16:22:03.820Z,2.33
2018-09-27T16:24:31.050Z,2.40
2018-09-27T16:26:58.438Z,3.50
2018-09-27T16:29:26.200Z,2.50
2018-09-27T16:31:53.627Z,2.33
2018-09-27T16:34:20.840Z,2.67
2018-09-27T16:36:48.076Z,3.70
2018-09-27T16:39:15.295Z,3.30
2018-09-27T16:41:42.591Z,3.17
2018-09-27T16:44:09.928Z,2.60
2018-09-27T16:46:37.288Z,2.50
2018-09-27T16:49:04.956Z,3.07
2018-09-27T16:51:32.165Z,3.10
2018-09-27T16:53:59.461Z,2.43
2018-09-27T16:56:27.004Z,2.60
2018-09-27T16:58:54.342Z,3.17
2018-09-27T17:01:22.017Z,2.83
2018-09-27T17:03:49.371Z,2.67
2018-09-27T17:06:17.194Z,2.93
2018-09-27T17:08:44.891Z,3.00
2018-09-27T17:11:12.904Z,2.70
2018-09-27T17:13:40.220Z,2.67
2018-09-27T17:16:07.517Z,2.80
2018-09-27T17:18:34.820Z,2.97
2018-09-27T17:21:02.219Z,2.70
2018-09-27T17:23:29.474Z,3.20
2018-09-27T17:25:56.700Z,2.70
2018-09-27T17:28:23.893Z,2.20
2018-09-27T17:30:51.113Z,3.33
2018-09-27T17:33:18.427Z,2.73
2018-09-27T17:35:45.770Z,2.77
2018-09-27T17:38:12.864Z,2.30
2018-09-27T17:40:40.093Z,2.33
2018-09-27T17:43:07.308Z,2.77
2018-09-27T17:45:34.843Z,2.80
2018-09-27T17:48:02.811Z,2.83
2018-09-27T17:50:30.462Z,3.60
2018-09-27T17:52:57.869Z,3.50
2018-09-27T17:55:25.143Z,5.80
2018-09-27T17:57:52.331Z,4.90
2018-09-27T18:00:19.749Z,5.57
2018-09-27T18:02:47.262Z,4.00
2018-09-27T18:05:19.162Z,4.17
2018-09-27T18:07:48.874Z,4.43
2018-09-27T18:13:04.345Z,3.97
2018-09-27T18:15:38.073Z,3.30
2018-09-27T18:18:11.394Z,3.10
2018-09-27T18:20:44.711Z,4.50
2018-09-27T18:23:23.136Z,3.40
2018-09-27T18:25:57.840Z,3.50
2018-09-27T18:28:35.818Z,2.80
2018-09-27T18:31:09.109Z,3.07
2018-09-27T18:33:42.503Z,2.97
2018-09-27T18:36:15.879Z,2.90
2018-09-27T18:38:49.572Z,3.30
2018-09-27T18:41:22.895Z,3.03
2018-09-27T18:43:55.976Z,3.33
2018-09-27T18:46:29.324Z,3.07
2018-09-27T18:49:02.952Z,2.90
2018-09-27T18:51:56.513Z,2.77
2018-09-27T18:54:25.006Z,2.83
2018-09-27T18:56:52.362Z,3.07
2018-09-27T18:59:25.582Z,3.10
2018-09-27T19:01:58.927Z,3.50
2018-09-27T19:04:32.306Z,2.90
2018-09-27T19:07:05.859Z,2.90
2018-09-27T19:09:39.320Z,3.30
2018-09-27T19:12:12.722Z,3.60
2018-09-27T19:14:45.947Z,3.67
2018-09-27T19:17:19.293Z,3.80
2018-09-27T19:19:46.510Z,4.50
2018-09-27T19:22:13.776Z,4.83
2018-09-27T19:24:40.950Z,5.70
2018-09-27T19:27:08.748Z,4.43
2018-09-27T19:29:36.044Z,3.90
2018-09-27T19:32:03.362Z,3.30
2018-09-27T19:34:30.666Z,3.03
2018-09-27T19:36:58.409Z,3.20
2018-09-27T19:39:26.253Z,3.00
2018-09-27T19:41:53.522Z,2.97
2018-09-27T19:44:20.766Z,3.20
2018-09-27T19:46:48.170Z,4.10
2018-09-27T19:49:15.468Z,3.30
2018-09-27T19:51:42.785Z,3.50
2018-09-27T19:54:10.055Z,3.83
2018-09-27T19:56:37.288Z,4.17
2018-09-27T19:59:04.835Z,4.03
2018-09-27T20:01:32.137Z,3.73
2018-09-27T20:03:59.587Z,3.57
2018-09-27T20:06:26.889Z,3.60
2018-09-27T20:08:54.148Z,4.20
2018-09-27T20:11:21.462Z,3.63
2018-09-27T20:13:48.711Z,4.00
2018-09-27T20:16:16.120Z,3.20
2018-09-27T20:18:43.274Z,3.30
2018-09-27T20:21:10.449Z,3.63
2018-09-27T20:23:37.665Z,4.07
2018-09-27T20:26:04.935Z,3.20
2018-09-27T20:28:32.185Z,3.47
2018-09-27T20:30:59.378Z,3.80
2018-09-27T20:33:26.610Z,3.47
2018-09-27T20:35:53.898Z,3.40
2018-09-27T20:38:21.093Z,4.00
2018-09-27T20:40:48.423Z,4.27
2018-09-27T20:43:15.649Z,3.50
2018-09-27T20:45:42.846Z,3.30
2018-09-27T20:48:10.079Z,3.67
2018-09-27T20:50:37.966Z,3.40
2018-09-27T20:53:05.494Z,3.57
2018-09-27T20:55:32.722Z,3.47
2018-09-27T20:57:59.918Z,5.37
2018-09-27T21:00:27.109Z,8.17
2018-09-27T21:02:54.407Z,3.80
2018-09-27T21:05:21.648Z,3.30
2018-09-27T21:07:48.867Z,3.63
2018-09-27T21:10:16.170Z,3.60
2018-09-27T21:12:43.495Z,3.50
2018-09-27T21:15:10.739Z,3.90
2018-09-27T21:17:37.905Z,3.70
2018-09-27T21:20:05.171Z,3.50
2018-09-27T21:22:32.381Z,3.87
2018-09-27T21:24:59.583Z,4.13
2018-09-27T21:27:26.838Z,3.70
2018-09-27T21:29:54.156Z,3.57
2018-09-27T21:32:21.454Z,3.60
2018-09-27T21:34:48.642Z,3.67
2018-09-27T21:37:15.849Z,3.13
2018-09-27T21:39:43.043Z,3.30
2018-09-27T21:42:10.236Z,3.70
2018-09-27T21:44:37.445Z,3.53
2018-09-27T21:47:04.849Z,3.57
2018-09-27T21:49:32.107Z,3.77
2018-09-27T21:51:59.275Z,3.40
2018-09-27T21:54:26.542Z,3.80
2018-09-27T21:56:53.710Z,3.73
2018-09-27T21:59:21.046Z,3.70
2018-09-27T22:01:48.363Z,3.70
2018-09-27T22:04:15.639Z,3.70
2018-09-27T22:06:43.129Z,3.80
2018-09-27T22:09:10.585Z,3.27
2018-09-27T22:11:38.190Z,4.43
2018-09-27T22:14:06.187Z,3.33
2018-09-27T22:16:33.614Z,3.80
2018-09-27T22:19:00.802Z,3.70
2018-09-27T22:21:27.986Z,3.47
2018-09-27T22:23:55.207Z,3.87
2018-09-27T22:26:22.750Z,3.93
2018-09-27T22:28:50.035Z,3.97
2018-09-27T22:31:17.296Z,4.20
2018-09-27T22:33:44.510Z,3.60
2018-09-27T22:36:11.866Z,4.20
2018-09-27T22:38:39.352Z,4.03
2018-09-27T22:41:06.574Z,4.10
2018-09-27T22:43:33.745Z,3.97
2018-09-27T22:46:00.996Z,3.93
2018-09-27T22:48:28.242Z,3.90
2018-09-27T22:50:55.484Z,3.40
2018-09-27T22:53:22.755Z,3.80
2018-09-27T22:55:49.985Z,4.07
2018-09-27T22:58:17.121Z,3.87
2018-09-27T23:00:44.435Z,3.80
2018-09-27T23:03:11.630Z,3.73
2018-09-27T23:05:38.888Z,3.87
2018-09-27T23:08:06.147Z,3.93
2018-09-27T23:10:33.393Z,3.63
2018-09-27T23:13:00.644Z,4.00
2018-09-27T23:15:27.904Z,3.40
2018-09-27T23:17:55.069Z,4.80
2018-09-27T23:20:22.304Z,4.10
2018-09-27T23:22:49.541Z,5.37
2018-09-27T23:25:16.913Z,3.80
2018-09-27T23:27:44.185Z,4.00
2018-09-27T23:30:11.397Z,3.97
2018-09-27T23:32:38.755Z,3.83
2018-09-27T23:35:05.962Z,3.80
2018-09-27T23:37:33.223Z,4.27
2018-09-27T23:40:00.425Z,4.20
2018-09-27T23:42:27.675Z,4.10
2018-09-27T23:44:54.843Z,3.87
2018-09-27T23:47:22.096Z,3.53
2018-09-27T23:49:49.430Z,3.70
2018-09-27T23:52:16.698Z,4.07
2018-09-27T23:54:43.941Z,4.23
2018-09-27T23:57:11.171Z,4.50
2018-09-27T23:59:38.728Z,4.50
